Port Aransas, TX (78373)

01:49 AM CDT del 20 Agosto 2014 (GMT -0500)
AB5KT - Island RV Resort | Change Station
CLOSE
Current Station
Stazione meteo personale
Location: Port Aransas, TX
Altitudine: 10 ft
Stazioni meteo nelle vicinanze

Alt. 10 ft 27.83 °N, 97.07 °W | Updated 7 seconds ago

Clear
Sereno
86.4 °F
Sembra 106 °F
N
1.8
Vento Variabile Vento da SSE
Gusts 2.5 mph

Oggi
Massima -- | Minima -- °F
--% Possibilità di precip.
Ieri
Massima -- | Minima -- °F
Precip. -- in
7:01 AM 8:01 PM
Luna calante, 24% visible
Pressione 29.91 in
Visibilità 10.0 miglia
Nuvole Sereno
Indice di calore 106 °F
Punto di rugiada 83 °F
Umidità 89%
Piovosità 0.00 in
Spessore del manto nevoso Non disponibile.
Raggi UV 0 fuori da 12
Polline 6.60 fuori da 12
Ozono Buono
Flu Activity Non disponibile.
METAR KRAS 200635Z AUTO 14009KT 10SM CLR 28/25 A2991 RMK AO2 T02810251

More Conditions Fewer Conditions

Pressione 29.91 in
Visibilità 10.0 miglia
Nuvole Sereno
Indice di calore 106 °F
Punto di rugiada 83 °F
Umidità 89%
Piovosità 0.00 in
Spessore del manto nevoso Non disponibile.
Raggi UV 0 fuori da 12
Polline 6.60 fuori da 12
Ozono Buono
Flu Activity Non disponibile.
METAR KRAS 200635Z AUTO 14009KT 10SM CLR 28/25 A2991 RMK AO2 T02810251

More Conditions Fewer Conditions

10-Day Weather Forecast

Almanac

Astronomia

Aug. 20, 2014 Alba Tramonto
Ora attuale 07:01 CDT 20:01 CDT
Crepuscolo civile 06:36 CDT 20:25 CDT
Crepuscolo nautico 06:08 CDT 20:54 CDT
Crepuscolo astronomico 05:38 CDT 21:24 CDT
Luna 02:51 CDT 16:38 CDT
Estensione della luce visibile 13h 49m
Lunghezza del giorno
13h 00m
Tomorrow will be 1m 29s shorter.
Luna calante, 24% of the Moon is Illuminated
Oggi
Luna calante
Ago 25
Nuovo
Set 2
Primo quarto
Set 8
Luna piena
Set 15
Ultimo quarto

Gli estremi di oggi

State Highs State Lows

Community

WunderPhotos

Upload Photos

1,745,592 foto caricate!

Nearby

Qualità dell'aria

  Qualità dell'aria Indice AQ Inquinante
Ieri Buono
OZONE
Attuale Buono
OZONE
Mercoledì Buono
PM10
Mercoledì Buono
OZONE
Giovedì Buono
PM10
Giovedì Buono
OZONE
Venerdì Buono
PM10
Venerdì Buono
OZONE

Profondità neve

Stazione Profondità Altitudine
Non sono state evidenziate nuove nevicate

Attività sismica

Città  Distanza Mag. Data & Ora
Non sono state riportate attività sismiche nelle vicinanze.
Minimo Magnitudo Mostrato è 2.5.

Temperature delle acque costiere

Località Temperatura
Baffin Bay Point of Rocks, TX 82.9 °F
South Bird Island, TX 86.0 °F
Packery Channel, TX 87.1 °F
Port Aransas, TX 87.1 °F
Malaquite Beach (Corpus Christi), TX 80.1 °F

Stazioni meteo nelle vicinanze